createdAt,value
2023-03-12T23:01:41.413Z,90.31
2023-03-12T23:02:12.387Z,90.26
2023-03-12T23:02:43.426Z,90.39
2023-03-12T23:03:14.045Z,89.97
2023-03-12T23:03:44.749Z,90.20
2023-03-12T23:04:15.449Z,90.06
2023-03-12T23:04:46.251Z,90.10
2023-03-12T23:05:16.924Z,89.95
2023-03-12T23:05:47.820Z,90.01
2023-03-12T23:06:18.611Z,90.08
2023-03-12T23:06:49.476Z,90.10
2023-03-12T23:07:20.137Z,90.06
2023-03-12T23:07:50.867Z,90.33
2023-03-12T23:08:21.599Z,90.16
2023-03-12T23:08:52.522Z,90.39
2023-03-12T23:09:23.216Z,90.43
2023-03-12T23:09:53.921Z,90.49
2023-03-12T23:10:24.620Z,90.39
2023-03-12T23:10:55.145Z,90.37
2023-03-12T23:11:25.783Z,90.26
2023-03-12T23:11:56.610Z,90.16
2023-03-12T23:12:27.252Z,89.91
2023-03-12T23:12:57.961Z,89.83
2023-03-12T23:13:28.695Z,89.65
2023-03-12T23:13:59.428Z,89.75
2023-03-12T23:14:30.146Z,89.75
2023-03-12T23:15:01.079Z,89.65
2023-03-12T23:15:40.525Z,89.69
2023-03-12T23:16:03.773Z,89.54
2023-03-12T23:16:33.691Z,89.36
2023-03-12T23:17:04.509Z,89.03
2023-03-12T23:17:35.362Z,88.99
2023-03-12T23:18:05.857Z,89.03
2023-03-12T23:18:36.960Z,89.03
2023-03-12T23:19:07.696Z,88.68
2023-03-12T23:19:38.406Z,88.72
2023-03-12T23:20:09.116Z,88.59
2023-03-12T23:20:40.064Z,88.76
2023-03-12T23:21:10.777Z,88.53
2023-03-12T23:21:41.477Z,88.78
2023-03-12T23:22:12.234Z,88.86
2023-03-12T23:22:42.678Z,88.57
2023-03-12T23:23:13.701Z,88.64
2023-03-12T23:23:44.615Z,88.96
2023-03-12T23:24:15.140Z,88.62
2023-03-12T23:24:45.767Z,88.35
2023-03-12T23:25:16.482Z,88.41
2023-03-12T23:25:46.978Z,88.31
2023-03-12T23:26:18.086Z,88.43
2023-03-12T23:26:48.981Z,88.02
2023-03-12T23:27:19.542Z,87.75
2023-03-12T23:27:50.135Z,87.71
2023-03-12T23:28:20.845Z,87.51
2023-03-12T23:28:51.535Z,87.26
2023-03-12T23:29:22.333Z,87.40
2023-03-12T23:29:53.219Z,87.27
2023-03-12T23:30:23.818Z,87.38
2023-03-12T23:30:54.363Z,86.99
2023-03-12T23:31:24.957Z,87.17
2023-03-12T23:31:55.589Z,87.13
2023-03-12T23:32:26.218Z,86.97
2023-03-12T23:32:57.139Z,87.13
2023-03-12T23:33:27.415Z,87.09
2023-03-12T23:33:57.917Z,87.17
2023-03-12T23:34:28.767Z,87.44
2023-03-12T23:34:59.647Z,87.54
2023-03-12T23:35:30.288Z,87.59
2023-03-12T23:36:01.476Z,87.51
2023-03-12T23:36:31.796Z,87.54
2023-03-12T23:37:02.256Z,87.77
2023-03-12T23:37:33.284Z,88.14
2023-03-12T23:38:03.935Z,88.31
2023-03-12T23:38:37.320Z,88.49
2023-03-12T23:39:05.538Z,88.65
2023-03-12T23:39:51.821Z,88.72
